Terminal Aerodrome Forecast
Issued by NWS

Home | Current Version | Previous Version | Text Only | Print | Product List | Glossary On
Versions: 1 2 3 4 5 6 7 8 9 10 11 12 13 14
000
FTUS42 TJSJ 170100 AAA
TAFJBQ
TAF AMD
TJBQ 170131Z 1702/1724 12006KT P6SM VCSH FEW030 BKN060
     FM171400 08013KT P6SM FEW030 SCT070
     FM171730 06011KT P6SM VCTS SCT025CB BKN040
     FM172300 10005KT P6SM FEW025 SCT060
      AMD NOT SKED 1702/1711=

USA.gov is the U.S. government's official web portal to all federal, state and local government web resources and services.